Terminal Aerodrome Forecast
Issued by NWS Sioux Falls, SD

Home | Current Version | Previous Version | Text Only | Print | Product List | Glossary On
Versions: 1 2 3 4 5 6 7 8 9 10 11 12 13 14
513
FTUS43 KFSD 212322
TAFFSD
TAF
KFSD 212322Z 2200/2224 29010KT P6SM SCT080
     FM220300 26007KT P6SM SKC
     FM221900 23011G16KT P6SM FEW250
     FM222300 20009KT P6SM FEW250=

USA.gov is the U.S. government's official web portal to all federal, state and local government web resources and services.